Time;durP1;ratioP1;P1;durP2;ratioP2;P2;SDS_P1;SDS_P2;PMS_P1;PMS_P2;Temp;Humidity;BMP_temperature;BMP_pressure;BME280_temperature;BME280_humidity;BME280_pressure;Samples;Min_cycle;Max_cycle;Signal;HPM_P1;HPM_P2
2022/11/29 00:01:00;;;;;;;3.83;3.40;;;7.60;99.90;;;;;;5037222;28;20415;-91
2022/11/29 00:03:27;;;;;;;14.63;3.30;;;7.60;99.90;;;;;;5012378;28;20228;-91
2022/11/29 00:05:54;;;;;;;3.13;1.90;;;7.50;99.90;;;;;;5018648;28;20246;-91
2022/11/29 00:08:21;;;;;;;5.00;3.53;;;7.50;99.90;;;;;;5036930;28;20241;-90
2022/11/29 00:10:47;;;;;;;8.03;3.87;;;7.50;99.90;;;;;;5039220;28;20570;-90
2022/11/29 00:13:12;;;;;;;3.20;3.00;;;7.50;99.90;;;;;;5001434;28;21012;-92
2022/11/29 00:15:39;;;;;;;2.43;1.83;;;7.50;99.90;;;;;;5004112;28;20268;-93
2022/11/29 00:18:06;;;;;;;10.17;4.23;;;7.60;99.90;;;;;;5018150;28;21233;-93
2022/11/29 00:20:33;;;;;;;5.93;3.03;;;7.60;99.90;;;;;;5018049;28;20194;-93
2022/11/29 00:22:59;;;;;;;3.17;2.87;;;7.60;99.90;;;;;;5003426;28;20208;-93
2022/11/29 00:25:26;;;;;;;3.27;2.80;;;7.60;99.90;;;;;;5004432;28;20214;-92
2022/11/29 00:27:51;;;;;;;3.03;2.83;;;7.70;99.90;;;;;;5018733;28;21071;-92
2022/11/29 00:30:18;;;;;;;6.93;4.23;;;7.70;99.90;;;;;;5002902;28;20210;-93
2022/11/29 00:32:44;;;;;;;3.37;2.77;;;7.70;99.90;;;;;;5003526;28;20193;-92
2022/11/29 00:35:10;;;;;;;3.37;3.03;;;7.60;99.90;;;;;;5020326;28;20977;-91
2022/11/29 00:37:35;;;;;;;8.80;3.53;;;7.70;99.90;;;;;;4987472;28;20341;-90
2022/11/29 00:40:02;;;;;;;6.07;3.60;;;7.60;99.90;;;;;;5003892;28;20226;-92
2022/11/29 00:42:28;;;;;;;5.07;2.83;;;7.60;99.90;;;;;;5027914;28;20214;-92
2022/11/29 00:44:54;;;;;;;2.97;2.77;;;7.60;99.90;;;;;;5036804;28;20225;-91
2022/11/29 00:47:19;;;;;;;2.73;2.57;;;7.60;99.90;;;;;;4987489;28;20211;-92
2022/11/29 00:49:45;;;;;;;4.27;3.70;;;7.60;99.90;;;;;;5003415;28;20222;-91
2022/11/29 00:52:11;;;;;;;4.13;3.70;;;7.60;99.90;;;;;;5002950;28;20225;-91
2022/11/29 00:54:36;;;;;;;3.10;2.90;;;7.60;99.90;;;;;;5004006;28;20232;-92
2022/11/29 00:57:02;;;;;;;6.17;3.83;;;7.70;99.90;;;;;;5001984;28;20264;-92
2022/11/29 00:59:29;;;;;;;2.80;2.33;;;7.70;99.90;;;;;;5004093;28;20198;-92
2022/11/29 01:01:55;;;;;;;3.80;2.80;;;7.80;99.90;;;;;;4997944;28;20242;-92
2022/11/29 01:04:20;;;;;;;6.47;3.93;;;7.80;99.90;;;;;;5015977;28;20237;-93
2022/11/29 01:06:50;;;;;;;2.57;2.27;;;7.80;99.90;;;;;;4983178;28;20222;-92
2022/11/29 01:09:16;;;;;;;3.33;2.23;;;7.80;99.90;;;;;;5016522;28;20604;-92
2022/11/29 01:11:42;;;;;;;3.90;3.17;;;7.80;99.90;;;;;;4998854;28;20198;-93
2022/11/29 01:14:11;;;;;;;4.30;3.67;;;7.80;99.90;;;;;;4984272;28;20216;-92
2022/11/29 01:16:37;;;;;;;3.20;2.73;;;7.80;99.90;;;;;;4999812;28;20222;-92
2022/11/29 01:19:03;;;;;;;3.10;2.73;;;7.80;99.90;;;;;;5014800;28;20630;-92
2022/11/29 01:21:30;;;;;;;4.77;2.57;;;7.80;99.90;;;;;;4999596;28;20246;-92
2022/11/29 01:23:56;;;;;;;4.77;2.90;;;7.80;99.90;;;;;;5016009;28;20281;-92
2022/11/29 01:26:24;;;;;;;3.30;3.00;;;7.80;99.90;;;;;;5016465;28;20188;-92
2022/11/29 01:28:51;;;;;;;2.97;2.67;;;7.80;99.90;;;;;;5015409;28;20230;-93
2022/11/29 01:31:20;;;;;;;3.33;2.33;;;7.80;99.90;;;;;;5016237;28;20226;-90
2022/11/29 01:33:46;;;;;;;3.17;2.47;;;7.90;99.90;;;;;;5013672;28;20219;-92
2022/11/29 01:36:13;;;;;;;4.43;3.23;;;8.00;99.90;;;;;;5000850;28;20207;-92
2022/11/29 01:38:41;;;;;;;3.03;2.23;;;8.00;99.90;;;;;;5014427;28;20349;-92
2022/11/29 01:41:13;;;;;;;4.17;3.07;;;8.00;99.90;;;;;;5000723;28;20954;-92
2022/11/29 01:43:55;;;;;;;6.33;3.73;;;8.00;99.90;;;;;;5016185;28;20218;-92
2022/11/29 01:46:22;;;;;;;3.10;2.90;;;8.00;99.90;;;;;;5015778;28;20268;-91
2022/11/29 01:48:49;;;;;;;3.23;2.83;;;8.00;99.90;;;;;;4998019;28;20782;-91
2022/11/29 01:51:15;;;;;;;4.67;4.23;;;8.00;99.90;;;;;;5012849;28;20222;-91
2022/11/29 01:53:40;;;;;;;12.03;3.17;;;8.10;99.90;;;;;;5014650;28;20192;-92
2022/11/29 01:56:06;;;;;;;4.00;3.70;;;8.10;99.90;;;;;;5017695;28;20190;-92
2022/11/29 01:58:34;;;;;;;5.43;4.93;;;8.20;99.90;;;;;;4999592;28;20265;-91
2022/11/29 02:01:00;;;;;;;3.10;2.90;;;8.20;99.90;;;;;;5019791;28;20248;-91
2022/11/29 02:03:26;;;;;;;4.97;2.77;;;8.20;99.90;;;;;;5030362;28;20696;-91
2022/11/29 02:05:53;;;;;;;6.70;3.30;;;8.20;99.90;;;;;;4991753;28;20228;-91
2022/11/29 02:08:28;;;;;;;2.90;2.27;;;8.10;99.90;;;;;;5030778;28;20223;-91
2022/11/29 02:11:28;;;;;;;4.83;3.83;;;8.10;99.90;;;;;;5039828;28;20668;-91
2022/11/29 02:14:02;;;;;;;3.33;2.53;;;8.10;99.90;;;;;;5022614;28;20702;-91
2022/11/29 02:16:49;;;;;;;7.60;3.90;;;8.10;99.90;;;;;;5022493;28;20431;-92
2022/11/29 02:19:27;;;;;;;3.53;2.17;;;8.20;99.90;;;;;;5030089;28;20219;-92
2022/11/29 02:22:05;;;;;;;5.17;3.73;;;8.20;99.90;;;;;;5018208;28;20218;-90
2022/11/29 02:24:34;;;;;;;7.90;3.40;;;8.20;99.90;;;;;;5020034;28;20742;-91
2022/11/29 02:27:34;;;;;;;6.37;5.00;;;8.10;99.90;;;;;;5020129;28;20238;-91
2022/11/29 02:30:15;;;;;;;3.70;2.10;;;8.20;99.90;;;;;;5039743;28;20297;-92
2022/11/29 02:33:02;;;;;;;6.07;3.47;;;8.20;99.90;;;;;;5038324;28;20264;-90
2022/11/29 02:35:47;;;;;;;3.37;2.97;;;8.20;99.90;;;;;;5022590;28;20196;-92
2022/11/29 02:38:24;;;;;;;5.57;4.60;;;8.20;99.90;;;;;;5021366;28;20733;-91
2022/11/29 02:41:29;;;;;;;8.37;4.13;;;8.20;99.90;;;;;;5038307;28;20226;-91
2022/11/29 02:44:11;;;;;;;31.50;4.37;;;8.20;99.90;;;;;;4999068;28;20223;-92
2022/11/29 02:47:13;;;;;;;6.80;3.77;;;8.20;99.90;;;;;;5039736;28;20222;-91
2022/11/29 02:49:42;;;;;;;5.13;3.50;;;8.30;99.90;;;;;;5023397;28;21033;-92
2022/11/29 02:52:16;;;;;;;4.80;2.50;;;8.30;99.90;;;;;;5042237;28;20313;-91
2022/11/29 02:54:50;;;;;;;2.77;2.10;;;8.20;99.90;;;;;;5021128;28;20222;-91
2022/11/29 02:57:42;;;;;;;3.40;2.27;;;8.20;99.90;;;;;;5038228;28;20566;-91
2022/11/29 03:00:21;;;;;;;4.63;3.10;;;8.20;99.90;;;;;;5040048;28;20215;-90
2022/11/29 03:02:50;;;;;;;16.93;3.60;;;8.20;99.90;;;;;;5028692;28;20321;-91
2022/11/29 03:05:19;;;;;;;4.60;4.17;;;8.30;99.90;;;;;;5020968;28;20602;-90
2022/11/29 03:08:07;;;;;;;14.37;3.53;;;8.30;99.90;;;;;;5020496;28;20234;-91
2022/11/29 03:10:45;;;;;;;3.37;3.07;;;8.20;99.90;;;;;;5020916;28;20218;-90
2022/11/29 03:13:22;;;;;;;5.17;3.60;;;8.20;99.90;;;;;;5036269;28;20230;-91
2022/11/29 03:16:00;;;;;;;3.83;2.13;;;8.20;99.90;;;;;;5037630;28;20443;-92
2022/11/29 03:19:04;;;;;;;10.13;3.37;;;8.10;99.90;;;;;;5019253;28;20218;-92
2022/11/29 03:21:41;;;;;;;11.90;2.27;;;8.10;99.90;;;;;;5020678;28;20251;-92
2022/11/29 03:24:14;;;;;;;2.80;2.60;;;8.20;99.90;;;;;;5037712;28;20213;-91
2022/11/29 03:26:58;;;;;;;5.63;5.07;;;8.20;99.90;;;;;;5038291;28;20182;-92
2022/11/29 03:29:34;;;;;;;19.13;3.67;;;8.20;99.90;;;;;;5022257;28;20178;-92
2022/11/29 03:32:11;;;;;;;5.33;2.37;;;8.20;99.90;;;;;;5021129;28;20205;-92
2022/11/29 03:34:51;;;;;;;2.47;2.27;;;8.20;99.90;;;;;;5020707;28;20774;-91
2022/11/29 03:37:27;;;;;;;6.73;2.87;;;8.30;99.90;;;;;;5019889;28;20253;-92
2022/11/29 03:40:04;;;;;;;9.63;3.83;;;8.30;99.90;;;;;;5020643;28;20217;-92
2022/11/29 03:42:55;;;;;;;2.77;2.47;;;8.20;99.90;;;;;;5038872;28;20213;-92
2022/11/29 03:45:33;;;;;;;8.87;1.77;;;8.20;99.90;;;;;;5037217;28;20258;-92
2022/11/29 03:48:11;;;;;;;3.30;3.10;;;8.30;99.90;;;;;;5037514;28;20226;-93
2022/11/29 03:51:00;;;;;;;6.40;1.73;;;8.30;99.90;;;;;;5037849;28;20217;-92
2022/11/29 03:54:00;;;;;;;6.67;2.77;;;8.40;99.90;;;;;;5018180;28;20212;-92
2022/11/29 03:56:40;;;;;;;3.80;3.47;;;8.40;99.90;;;;;;5020715;28;20225;-92
2022/11/29 03:59:47;;;;;;;2.93;2.60;;;8.40;99.90;;;;;;5020327;28;20264;-92
2022/11/29 04:02:50;;;;;;;4.50;3.40;;;8.40;99.90;;;;;;5019140;28;20601;-91
2022/11/29 04:05:55;;;;;;;17.07;2.50;;;8.40;99.90;;;;;;5036385;28;20214;-91
2022/11/29 04:08:50;;;;;;;2.57;1.80;;;8.40;99.90;;;;;;4927881;29;20334;-92
2022/11/29 04:11:27;;;;;;;2.77;2.57;;;8.40;99.90;;;;;;4899661;29;20234;-92
2022/11/29 04:14:29;;;;;;;7.00;3.07;;;8.40;99.90;;;;;;5006636;28;20344;-92
2022/11/29 04:17:13;;;;;;;9.00;2.53;;;8.40;99.90;;;;;;5037799;28;20279;-93
2022/11/29 04:19:57;;;;;;;4.53;2.67;;;8.40;99.90;;;;;;5038010;28;20264;-92
2022/11/29 04:23:03;;;;;;;4.33;3.27;;;8.30;99.90;;;;;;5019215;28;20555;-92
2022/11/29 04:25:29;;;;;;;2.13;2.03;;;8.20;99.90;;;;;;5005768;28;20245;-92
2022/11/29 04:28:09;;;;;;;6.97;3.00;;;8.20;99.90;;;;;;5018997;28;20234;-91
2022/11/29 04:31:01;;;;;;;2.60;1.43;;;8.20;99.90;;;;;;5019707;28;20224;-92
2022/11/29 04:33:44;;;;;;;2.87;2.47;;;8.30;99.90;;;;;;4992659;28;20206;-93
2022/11/29 04:36:45;;;;;;;11.80;3.00;;;8.40;99.90;;;;;;5018360;28;20233;-92
2022/11/29 04:39:22;;;;;;;1.57;1.47;;;8.50;99.90;;;;;;5009966;28;20675;-91
2022/11/29 04:41:51;;;;;;;3.27;2.50;;;8.50;99.90;;;;;;5020572;28;20188;-92
2022/11/29 04:44:35;;;;;;;2.50;2.30;;;8.50;99.90;;;;;;5037077;28;20217;-91
2022/11/29 04:47:01;;;;;;;8.47;3.27;;;8.40;99.90;;;;;;5019927;28;20235;-92
2022/11/29 04:49:30;;;;;;;2.10;1.93;;;8.40;99.90;;;;;;5035396;28;20344;-92
2022/11/29 04:52:32;;;;;;;2.73;2.17;;;8.40;99.90;;;;;;5037454;28;20217;-92
2022/11/29 04:55:32;;;;;;;4.00;3.13;;;8.30;99.90;;;;;;5020934;28;20219;-92
2022/11/29 04:58:21;;;;;;;5.20;3.37;;;8.30;99.90;;;;;;5037234;28;20226;-92
2022/11/29 05:01:04;;;;;;;2.33;2.17;;;8.30;99.90;;;;;;5035764;28;20719;-91
2022/11/29 05:03:38;;;;;;;1.57;1.47;;;8.30;99.90;;;;;;5016836;28;20898;-92
2022/11/29 05:06:25;;;;;;;6.27;2.23;;;8.30;99.90;;;;;;5019886;28;20221;-92
2022/11/29 05:08:53;;;;;;;3.33;3.03;;;8.30;99.90;;;;;;5017642;28;20241;-92
2022/11/29 05:11:33;;;;;;;2.40;2.00;;;8.30;99.90;;;;;;5036721;28;20255;-92
2022/11/29 05:14:33;;;;;;;4.40;2.30;;;8.40;99.90;;;;;;5027223;28;20226;-92
2022/11/29 05:17:17;;;;;;;2.17;1.97;;;8.40;99.90;;;;;;5027822;28;20233;-92
2022/11/29 05:19:55;;;;;;;4.90;2.60;;;8.40;99.90;;;;;;5019273;28;20222;-92
2022/11/29 05:22:41;;;;;;;2.93;2.70;;;8.40;99.90;;;;;;5019676;28;20236;-91
2022/11/29 05:25:22;;;;;;;4.43;3.10;;;8.40;99.90;;;;;;5036522;28;20698;-90
2022/11/29 05:27:55;;;;;;;9.63;1.87;;;8.30;99.90;;;;;;5034648;28;21187;-92
2022/11/29 05:30:24;;;;;;;1.53;1.07;;;8.40;99.90;;;;;;5036453;28;20763;-91
2022/11/29 05:33:14;;;;;;;7.93;2.80;;;8.40;99.90;;;;;;5017167;28;20190;-91
2022/11/29 05:35:57;;;;;;;4.73;4.23;;;8.50;99.90;;;;;;5019208;28;20183;-91
2022/11/29 05:39:00;;;;;;;0.73;0.63;;;8.60;99.90;;;;;;5021475;28;20195;-92
2022/11/29 05:41:45;;;;;;;2.33;2.00;;;8.60;99.90;;;;;;5022214;28;20226;-91
2022/11/29 05:44:51;;;;;;;2.43;2.27;;;8.70;99.90;;;;;;5022123;28;20213;-92
2022/11/29 05:47:25;;;;;;;3.07;2.83;;;8.70;99.90;;;;;;4982727;28;20244;-91
2022/11/29 05:50:19;;;;;;;2.20;2.00;;;8.70;99.90;;;;;;5024377;28;20217;-91
2022/11/29 05:53:12;;;;;;;16.53;3.73;;;8.60;99.90;;;;;;5023394;28;20703;-93
2022/11/29 05:55:52;;;;;;;1.00;1.00;;;8.60;99.90;;;;;;5041556;28;20218;-93
2022/11/29 05:58:46;;;;;;;11.33;2.83;;;8.60;99.90;;;;;;5039796;28;20221;-93
2022/11/29 06:01:57;;;;;;;2.67;2.57;;;8.70;99.90;;;;;;5039855;28;20233;-89
2022/11/29 06:04:53;;;;;;;1.63;1.53;;;8.70;99.90;;;;;;5023835;28;20687;-93
2022/11/29 06:07:43;;;;;;;9.03;1.47;;;8.80;99.90;;;;;;5037795;28;20240;-90
2022/11/29 06:10:17;;;;;;;2.93;1.37;;;8.90;99.90;;;;;;5021362;28;20226;-88
2022/11/29 06:13:02;;;;;;;6.87;1.40;;;8.90;99.90;;;;;;5039139;28;20241;-90
2022/11/29 06:15:58;;;;;;;1.47;0.87;;;8.90;99.90;;;;;;5020043;28;20222;-89
2022/11/29 06:18:32;;;;;;;1.03;1.00;;;8.90;99.90;;;;;;5020119;28;20222;-89
2022/11/29 06:21:19;;;;;;;1.50;1.40;;;9.00;99.90;;;;;;5022878;28;20244;-89
2022/11/29 06:23:45;;;;;;;2.90;1.87;;;9.00;99.90;;;;;;5018409;28;20190;-90
2022/11/29 06:26:43;;;;;;;1.43;1.03;;;9.10;99.90;;;;;;5039633;28;20194;-90
2022/11/29 06:29:12;;;;;;;1.57;1.30;;;9.10;99.90;;;;;;5021439;28;20227;-90
2022/11/29 06:31:47;;;;;;;2.23;2.03;;;9.10;99.90;;;;;;5039069;28;20280;-89
2022/11/29 06:34:41;;;;;;;9.67;1.63;;;9.20;99.90;;;;;;5021710;28;20709;-90
2022/11/29 06:37:31;;;;;;;1.47;1.33;;;9.20;99.90;;;;;;5038460;28;20711;-90
2022/11/29 06:39:56;;;;;;;2.10;1.17;;;9.30;99.90;;;;;;5022121;28;20688;-89
2022/11/29 06:42:22;;;;;;;5.57;2.43;;;9.30;99.90;;;;;;5003158;28;20214;-90
2022/11/29 06:44:48;;;;;;;9.50;2.30;;;9.40;99.90;;;;;;5002836;28;20186;-90
2022/11/29 06:47:36;;;;;;;3.53;2.00;;;9.30;99.90;;;;;;5003390;28;20246;-90
2022/11/29 06:50:16;;;;;;;7.00;1.87;;;9.30;99.90;;;;;;5035899;28;20213;-90
2022/11/29 06:53:01;;;;;;;1.57;1.47;;;9.30;99.90;;;;;;5035417;28;20222;-87
2022/11/29 06:55:55;;;;;;;1.30;1.20;;;9.30;99.90;;;;;;5036883;28;20218;-89
2022/11/29 06:58:36;;;;;;;6.90;1.37;;;9.30;99.90;;;;;;5015245;28;20301;-90
2022/11/29 07:01:21;;;;;;;5.20;1.63;;;9.30;99.90;;;;;;5036413;28;20365;-88
2022/11/29 07:04:14;;;;;;;0.50;0.50;;;9.30;99.90;;;;;;5038745;28;20241;-88
2022/11/29 07:06:40;;;;;;;1.17;1.03;;;9.30;99.90;;;;;;5020651;28;21061;-87
2022/11/29 07:09:18;;;;;;;7.80;1.87;;;9.20;99.90;;;;;;5021260;28;20230;-90
2022/11/29 07:11:45;;;;;;;7.07;1.80;;;9.20;99.90;;;;;;5020281;28;20539;-90
2022/11/29 07:14:11;;;;;;;12.07;2.00;;;9.20;99.90;;;;;;5041072;28;20186;-90
2022/11/29 07:17:02;;;;;;;19.27;3.20;;;9.20;99.90;;;;;;5038337;28;20229;-91
2022/11/29 07:19:47;;;;;;;2.07;1.87;;;9.30;99.90;;;;;;5037936;28;20233;-91
2022/11/29 07:22:18;;;;;;;2.50;2.27;;;9.30;99.90;;;;;;5038371;28;20226;-92
2022/11/29 07:24:57;;;;;;;1.77;1.47;;;9.30;99.90;;;;;;5017920;28;20229;-89
2022/11/29 07:27:37;;;;;;;4.63;2.23;;;9.20;99.90;;;;;;5036404;28;20253;-90
2022/11/29 07:30:34;;;;;;;1.47;1.43;;;9.20;99.90;;;;;;5019126;28;20735;-90
2022/11/29 07:33:10;;;;;;;1.10;1.07;;;9.20;99.90;;;;;;5000366;28;20301;-90
2022/11/29 07:36:09;;;;;;;3.80;1.50;;;9.20;99.90;;;;;;5018948;28;20558;-89
2022/11/29 07:39:01;;;;;;;3.13;1.43;;;9.20;99.90;;;;;;5038052;28;20190;-92
2022/11/29 07:42:02;;;;;;;4.57;1.60;;;9.20;99.90;;;;;;5017905;28;20285;-90
2022/11/29 07:44:55;;;;;;;1.80;1.57;;;9.30;99.90;;;;;;5019477;28;20249;-88
2022/11/29 07:47:21;;;;;;;5.20;1.20;;;9.30;99.90;;;;;;5020455;28;20213;-89
2022/11/29 07:49:46;;;;;;;1.53;0.97;;;9.30;99.90;;;;;;5001746;28;20214;-89
2022/11/29 07:52:15;;;;;;;0.30;0.30;;;9.30;99.90;;;;;;5002352;28;20225;-88
2022/11/29 07:54:41;;;;;;;1.70;1.20;;;9.30;99.90;;;;;;5026032;28;20668;-88
2022/11/29 07:57:06;;;;;;;1.13;0.83;;;9.20;99.90;;;;;;5015915;28;20301;-85
2022/11/29 07:59:32;;;;;;;5.43;1.80;;;9.20;99.90;;;;;;4992735;28;20201;-89
2022/11/29 08:01:58;;;;;;;12.13;1.00;;;9.30;99.90;;;;;;4997267;28;20253;-88
2022/11/29 08:04:24;;;;;;;0.27;0.27;;;9.30;99.90;;;;;;4998234;28;20728;-88
2022/11/29 08:06:50;;;;;;;4.50;2.00;;;9.30;99.90;;;;;;5013762;28;20329;-86
2022/11/29 08:09:16;;;;;;;5.33;2.67;;;9.30;99.90;;;;;;4983752;28;20236;-91
2022/11/29 08:11:41;;;;;;;8.10;0.67;;;9.30;99.90;;;;;;4999824;28;20195;-87
2022/11/29 08:14:07;;;;;;;18.87;1.20;;;9.30;99.90;;;;;;4984134;28;20272;-89
2022/11/29 08:16:33;;;;;;;2.40;2.30;;;9.40;99.90;;;;;;5014937;28;20233;-89
2022/11/29 08:18:58;;;;;;;1.70;1.47;;;9.50;99.90;;;;;;4999703;28;20229;-88
2022/11/29 08:21:24;;;;;;;0.60;0.60;;;9.50;99.90;;;;;;4999686;28;20213;-90
2022/11/29 08:23:50;;;;;;;1.43;0.97;;;9.60;99.90;;;;;;4996926;28;20280;-90
2022/11/29 08:26:18;;;;;;;7.30;1.47;;;9.60;99.90;;;;;;5016576;28;20197;-88
2022/11/29 08:28:44;;;;;;;0.47;0.47;;;9.60;99.90;;;;;;5015288;28;20257;-90
2022/11/29 08:31:12;;;;;;;1.70;1.60;;;9.70;99.90;;;;;;5016692;28;20295;-89
2022/11/29 08:33:40;;;;;;;1.77;1.63;;;9.80;99.90;;;;;;5016697;28;20217;-91
2022/11/29 08:36:08;;;;;;;2.90;1.00;;;9.80;99.90;;;;;;5016553;28;20543;-92
2022/11/29 08:38:33;;;;;;;1.00;1.00;;;9.90;99.90;;;;;;5016974;28;20186;-90
2022/11/29 08:41:01;;;;;;;2.17;1.97;;;10.00;99.90;;;;;;4984787;28;20217;-90
2022/11/29 08:43:28;;;;;;;0.77;0.77;;;10.10;99.90;;;;;;5013643;28;20213;-90
2022/11/29 08:45:54;;;;;;;2.20;1.30;;;10.10;99.90;;;;;;5034606;28;20324;-88
2022/11/29 08:48:20;;;;;;;2.70;1.37;;;10.10;99.90;;;;;;5018931;28;20238;-91
2022/11/29 08:50:48;;;;;;;3.87;3.63;;;10.10;99.90;;;;;;4997555;28;20655;-88
2022/11/29 08:55:59;;;;;;;3.33;2.07;;;10.20;99.90;;;;;;5023234;28;20218;-90
2022/11/29 08:58:25;;;;;;;1.23;0.83;;;10.20;99.90;;;;;;5021717;28;20222;-88
2022/11/29 09:00:51;;;;;;;2.73;2.37;;;10.20;99.90;;;;;;5019202;28;20213;-91
2022/11/29 09:06:10;;;;;;;2.77;1.47;;;10.20;99.90;;;;;;5007224;28;20569;-90
2022/11/29 09:08:35;;;;;;;0.93;0.87;;;10.30;99.90;;;;;;5033803;28;20270;-90
2022/11/29 09:11:13;;;;;;;2.63;1.40;;;10.30;99.90;;;;;;5032847;28;20194;-92
2022/11/29 09:13:41;;;;;;;3.07;1.77;;;10.30;99.90;;;;;;5041196;28;20229;-92
2022/11/29 09:16:09;;;;;;;0.73;0.73;;;10.30;99.90;;;;;;5005618;28;20218;-91
2022/11/29 09:18:36;;;;;;;4.20;1.27;;;10.40;99.90;;;;;;5037707;28;20221;-91
2022/11/29 09:21:08;;;;;;;2.67;1.70;;;10.40;99.90;;;;;;5038787;28;20218;-93
2022/11/29 09:23:37;;;;;;;15.07;1.43;;;10.50;99.90;;;;;;5039285;28;20198;-91
2022/11/29 09:26:04;;;;;;;3.80;3.03;;;10.50;99.90;;;;;;5022120;28;20193;-89
2022/11/29 09:28:30;;;;;;;22.17;1.07;;;10.60;99.90;;;;;;5041186;28;20229;-91
2022/11/29 09:31:02;;;;;;;9.47;1.70;;;10.60;99.90;;;;;;5023287;28;20268;-89
2022/11/29 09:33:27;;;;;;;1.37;1.07;;;10.60;99.90;;;;;;5036513;28;21189;-87
2022/11/29 09:35:57;;;;;;;2.67;1.23;;;10.60;99.90;;;;;;5019812;28;20222;-91
2022/11/29 09:38:23;;;;;;;2.30;0.93;;;10.70;99.90;;;;;;5022081;28;20596;-89
2022/11/29 09:40:55;;;;;;;8.97;0.47;;;10.70;99.90;;;;;;5004918;28;20206;-88
2022/11/29 09:43:59;;;;;;;1.97;1.33;;;10.80;99.90;;;;;;5038916;28;20281;-92
2022/11/29 09:46:51;;;;;;;1.63;1.10;;;10.80;99.90;;;;;;5021389;28;20206;-92
2022/11/29 09:49:22;;;;;;;0.93;0.80;;;10.90;99.90;;;;;;5015773;28;20230;-90
2022/11/29 09:51:58;;;;;;;13.30;2.13;;;10.90;99.90;;;;;;5024297;28;20820;-91
2022/11/29 09:54:23;;;;;;;2.93;0.57;;;11.00;99.90;;;;;;5021975;28;20226;-92
2022/11/29 09:56:54;;;;;;;3.20;1.63;;;11.10;99.90;;;;;;5025135;28;20267;-91
2022/11/29 09:59:26;;;;;;;2.33;1.17;;;11.20;99.90;;;;;;5042479;28;20178;-91
2022/11/29 10:02:03;;;;;;;1.77;1.47;;;11.30;99.90;;;;;;5024906;28;20238;-90
2022/11/29 10:04:35;;;;;;;2.43;1.73;;;11.30;99.90;;;;;;5024539;28;20304;-91
2022/11/29 10:07:36;;;;;;;1.40;1.13;;;11.40;99.90;;;;;;5024371;28;20210;-92
2022/11/29 10:10:21;;;;;;;3.00;1.37;;;11.40;99.90;;;;;;5033640;28;20224;-93
2022/11/29 10:13:19;;;;;;;9.53;2.53;;;11.50;99.90;;;;;;5043250;28;20613;-90
2022/11/29 10:15:50;;;;;;;3.33;1.40;;;11.60;99.90;;;;;;5030232;28;20248;-92
2022/11/29 10:18:37;;;;;;;9.00;1.50;;;11.80;99.90;;;;;;5024739;28;20230;-94
2022/11/29 10:21:20;;;;;;;2.17;2.07;;;12.00;99.90;;;;;;5024969;28;20220;-92
2022/11/29 10:23:56;;;;;;;4.50;2.10;;;12.10;99.90;;;;;;5021470;28;20772;-92
2022/11/29 10:26:23;;;;;;;4.53;2.87;;;12.20;99.90;;;;;;5022193;28;20197;-92
2022/11/29 10:28:50;;;;;;;3.87;2.47;;;12.10;99.90;;;;;;5022905;28;20238;-92
2022/11/29 10:31:20;;;;;;;2.53;2.33;;;12.20;99.90;;;;;;5030408;28;20715;-93
2022/11/29 10:33:46;;;;;;;2.10;1.90;;;12.30;99.90;;;;;;5038337;28;20221;-92
2022/11/29 10:36:20;;;;;;;16.27;2.83;;;12.30;99.90;;;;;;5020335;28;21368;-92
2022/11/29 10:38:47;;;;;;;3.07;1.50;;;12.40;99.90;;;;;;5028394;28;20256;-91
2022/11/29 10:41:18;;;;;;;4.37;2.50;;;12.30;99.90;;;;;;5022298;28;21148;-91
2022/11/29 10:43:44;;;;;;;3.33;1.90;;;12.20;99.90;;;;;;5022537;28;20291;-91
2022/11/29 10:46:23;;;;;;;5.77;2.83;;;12.00;99.90;;;;;;5021832;28;20695;-91
2022/11/29 10:48:49;;;;;;;4.97;2.33;;;12.00;99.90;;;;;;5023598;28;20576;-95
2022/11/29 10:51:16;;;;;;;4.80;2.67;;;12.00;99.90;;;;;;4990299;28;20778;-92
2022/11/29 10:53:43;;;;;;;6.27;1.97;;;12.00;99.90;;;;;;5021259;28;20201;-91
2022/11/29 10:56:34;;;;;;;3.50;2.73;;;12.00;99.90;;;;;;5022057;28;20780;-92
2022/11/29 10:59:07;;;;;;;3.20;2.53;;;11.90;99.90;;;;;;5023868;28;20218;-93
2022/11/29 11:01:37;;;;;;;5.17;2.93;;;12.10;99.90;;;;;;5019368;28;20330;-91
2022/11/29 11:04:06;;;;;;;3.70;2.70;;;12.20;99.90;;;;;;5034947;28;20300;-90
2022/11/29 11:06:45;;;;;;;3.17;2.53;;;12.50;99.90;;;;;;5027088;28;20675;-91
2022/11/29 11:09:26;;;;;;;2.03;1.87;;;12.50;99.90;;;;;;5020721;28;20335;-88
2022/11/29 11:11:54;;;;;;;4.90;2.40;;;12.40;99.90;;;;;;5037531;28;20220;-89
2022/11/29 11:14:37;;;;;;;7.10;2.73;;;12.40;99.90;;;;;;5039951;28;20191;-88
2022/11/29 11:17:21;;;;;;;3.20;2.90;;;12.40;99.90;;;;;;5028717;28;20217;-88
2022/11/29 11:19:55;;;;;;;3.90;3.03;;;12.40;99.90;;;;;;5022204;28;20219;-86
2022/11/29 11:22:23;;;;;;;3.50;2.70;;;12.30;99.90;;;;;;5023571;28;20212;-88
2022/11/29 11:25:00;;;;;;;5.27;3.50;;;12.30;99.90;;;;;;5023613;28;20222;-85
2022/11/29 11:27:35;;;;;;;2.67;2.47;;;12.20;99.90;;;;;;5019945;28;20623;-90
2022/11/29 11:30:17;;;;;;;3.40;3.10;;;12.10;99.90;;;;;;5022881;28;20245;-90
2022/11/29 11:33:06;;;;;;;4.00;2.80;;;12.00;99.90;;;;;;5027550;28;20184;-89
2022/11/29 11:35:32;;;;;;;5.63;3.13;;;12.10;99.90;;;;;;5020996;28;20179;-88
2022/11/29 11:37:57;;;;;;;5.63;3.00;;;12.30;99.90;;;;;;5021050;28;20192;-89
2022/11/29 11:40:29;;;;;;;3.00;2.70;;;12.40;99.90;;;;;;5004558;28;21002;-88
2022/11/29 11:42:58;;;;;;;4.03;2.20;;;12.50;99.90;;;;;;5020267;28;20736;-88
2022/11/29 11:45:37;;;;;;;2.90;1.70;;;12.70;99.90;;;;;;5021605;28;20761;-88
2022/11/29 11:48:16;;;;;;;6.80;2.40;;;12.50;99.90;;;;;;5021938;28;20237;-89
2022/11/29 11:50:53;;;;;;;3.20;2.87;;;12.20;99.90;;;;;;5020945;28;20186;-88
2022/11/29 11:53:21;;;;;;;3.27;2.60;;;12.20;99.90;;;;;;5027799;28;20178;-87
2022/11/29 11:56:00;;;;;;;2.50;2.23;;;12.40;99.90;;;;;;5038372;28;20744;-87
2022/11/29 11:58:33;;;;;;;5.83;2.20;;;12.30;99.90;;;;;;5021052;28;20209;-88
2022/11/29 12:01:13;;;;;;;3.80;3.50;;;12.30;99.90;;;;;;5019844;28;20242;-88
2022/11/29 12:03:55;;;;;;;2.23;1.90;;;12.40;99.90;;;;;;5034094;28;20698;-87
2022/11/29 12:06:47;;;;;;;4.33;2.70;;;12.50;99.90;;;;;;5038262;28;20257;-89
2022/11/29 12:09:37;;;;;;;8.03;2.10;;;12.60;99.90;;;;;;5036782;28;20226;-87
2022/11/29 12:12:22;;;;;;;4.23;3.40;;;12.70;99.90;;;;;;5036528;28;20240;-87
2022/11/29 12:15:01;;;;;;;3.33;3.03;;;12.80;99.90;;;;;;5037723;28;20319;-87
2022/11/29 12:17:36;;;;;;;9.30;3.03;;;12.70;99.90;;;;;;5038888;28;20663;-86
2022/11/29 12:20:11;;;;;;;3.83;2.17;;;12.70;99.90;;;;;;5020986;28;20778;-86
2022/11/29 12:22:47;;;;;;;4.40;3.33;;;12.50;99.90;;;;;;5036106;28;20714;-87
2022/11/29 12:25:19;;;;;;;6.40;3.30;;;12.50;99.90;;;;;;5036500;28;20226;-88
2022/11/29 12:27:48;;;;;;;4.60;2.57;;;12.40;99.90;;;;;;5035831;28;20239;-87
2022/11/29 12:30:14;;;;;;;8.67;2.37;;;12.40;99.90;;;;;;5002563;28;20213;-88
2022/11/29 12:32:52;;;;;;;8.00;2.37;;;12.30;99.90;;;;;;5003180;28;20746;-88
2022/11/29 12:35:45;;;;;;;6.20;2.07;;;12.30;99.90;;;;;;5018796;28;20188;-89
2022/11/29 12:38:28;;;;;;;3.80;3.03;;;12.30;99.90;;;;;;5020839;28;20220;-87
2022/11/29 12:41:06;;;;;;;4.50;3.77;;;12.30;99.90;;;;;;5017810;28;20234;-89
2022/11/29 12:43:55;;;;;;;3.73;2.63;;;12.30;99.90;;;;;;5035522;28;20221;-93
2022/11/29 12:46:26;;;;;;;3.30;3.00;;;12.30;99.90;;;;;;5037201;28;20222;-91
2022/11/29 12:49:14;;;;;;;5.07;3.37;;;12.30;99.90;;;;;;5017221;28;20695;-92
2022/11/29 12:51:49;;;;;;;4.07;2.90;;;12.20;99.90;;;;;;5017929;28;20313;-91
2022/11/29 12:54:47;;;;;;;2.43;2.23;;;12.10;99.90;;;;;;5018655;28;20585;-94
2022/11/29 12:57:28;;;;;;;3.77;2.10;;;12.10;99.90;;;;;;5003889;28;20253;-91
2022/11/29 13:00:06;;;;;;;3.23;2.13;;;12.10;99.90;;;;;;5035796;28;20222;-90
2022/11/29 13:02:47;;;;;;;2.83;1.90;;;12.20;99.90;;;;;;5035228;28;20225;-92
2022/11/29 13:05:51;;;;;;;2.43;2.27;;;12.20;99.90;;;;;;5019751;28;20200;-91
2022/11/29 13:09:04;;;;;;;1.90;1.73;;;12.10;99.90;;;;;;5036547;28;20273;-93
2022/11/29 13:11:47;;;;;;;2.40;2.20;;;12.00;99.90;;;;;;4932824;28;20229;-92
2022/11/29 13:14:35;;;;;;;1.77;1.63;;;11.90;99.90;;;;;;5039335;28;20647;-95
2022/11/29 13:17:05;;;;;;;2.87;2.00;;;11.90;99.90;;;;;;5019560;28;20210;-94
2022/11/29 13:19:54;;;;;;;2.27;1.47;;;11.80;99.90;;;;;;5019923;28;20309;-92
2022/11/29 13:22:48;;;;;;;3.13;1.77;;;11.70;99.90;;;;;;5020240;28;20226;-93
2022/11/29 13:25:24;;;;;;;1.07;1.07;;;11.80;99.90;;;;;;5018218;28;20221;-94
2022/11/29 13:28:01;;;;;;;2.17;2.07;;;11.70;99.90;;;;;;5019283;28;20236;-92
2022/11/29 13:30:27;;;;;;;1.40;1.30;;;11.70;99.90;;;;;;5019570;28;20217;-90
2022/11/29 13:33:15;;;;;;;2.27;1.83;;;11.70;99.90;;;;;;5005700;28;20275;-91
2022/11/29 13:35:49;;;;;;;1.93;1.80;;;11.70;99.90;;;;;;5038919;28;20182;-89
2022/11/29 13:38:41;;;;;;;1.97;1.37;;;11.70;99.90;;;;;;5030716;28;20680;-91
2022/11/29 13:41:33;;;;;;;2.40;1.40;;;11.70;99.90;;;;;;5024407;28;20202;-89
2022/11/29 13:44:03;;;;;;;0.93;0.93;;;11.60;99.90;;;;;;5021006;28;20214;-92
2022/11/29 13:47:01;;;;;;;1.07;1.07;;;11.60;99.90;;;;;;5023402;28;20257;-92
2022/11/29 13:49:51;;;;;;;1.67;1.57;;;11.60;99.90;;;;;;5015357;28;20253;-94